sensor_id;sensor_type;location;lat;lon;timestamp;P1;durP1;ratioP1;P2;durP2;ratioP2
45198;SDS011;30941;46.422;18.772;2023-04-03T00:00:38;15.73;;;9.60;;
45198;SDS011;30941;46.422;18.772;2023-04-03T00:03:03;16.88;;;8.55;;
45198;SDS011;30941;46.422;18.772;2023-04-03T00:05:29;14.65;;;9.77;;
45198;SDS011;30941;46.422;18.772;2023-04-03T00:07:54;13.65;;;8.98;;
45198;SDS011;30941;46.422;18.772;2023-04-03T00:10:20;13.88;;;9.15;;
45198;SDS011;30941;46.422;18.772;2023-04-03T00:12:45;14.60;;;9.20;;
45198;SDS011;30941;46.422;18.772;2023-04-03T00:15:11;12.10;;;9.30;;
45198;SDS011;30941;46.422;18.772;2023-04-03T00:17:36;13.43;;;8.77;;
45198;SDS011;30941;46.422;18.772;2023-04-03T00:20:02;12.77;;;9.27;;
45198;SDS011;30941;46.422;18.772;2023-04-03T00:22:28;14.07;;;8.75;;
45198;SDS011;30941;46.422;18.772;2023-04-03T00:24:54;14.52;;;10.13;;
45198;SDS011;30941;46.422;18.772;2023-04-03T00:27:19;15.05;;;9.30;;
45198;SDS011;30941;46.422;18.772;2023-04-03T00:29:45;14.77;;;10.23;;
45198;SDS011;30941;46.422;18.772;2023-04-03T00:32:10;14.90;;;10.52;;
45198;SDS011;30941;46.422;18.772;2023-04-03T00:34:36;15.18;;;9.95;;
45198;SDS011;30941;46.422;18.772;2023-04-03T00:37:01;14.20;;;9.93;;
45198;SDS011;30941;46.422;18.772;2023-04-03T00:39:26;15.10;;;9.60;;
45198;SDS011;30941;46.422;18.772;2023-04-03T00:41:52;14.98;;;10.38;;
45198;SDS011;30941;46.422;18.772;2023-04-03T00:44:21;16.80;;;10.25;;
45198;SDS011;30941;46.422;18.772;2023-04-03T00:46:47;14.98;;;10.60;;
45198;SDS011;30941;46.422;18.772;2023-04-03T00:49:13;15.88;;;9.98;;
45198;SDS011;30941;46.422;18.772;2023-04-03T00:51:38;17.33;;;10.77;;
45198;SDS011;30941;46.422;18.772;2023-04-03T00:54:05;16.13;;;10.93;;
45198;SDS011;30941;46.422;18.772;2023-04-03T00:56:31;18.92;;;10.40;;
45198;SDS011;30941;46.422;18.772;2023-04-03T00:59:20;13.82;;;9.25;;
45198;SDS011;30941;46.422;18.772;2023-04-03T01:01:52;14.88;;;9.88;;
45198;SDS011;30941;46.422;18.772;2023-04-03T01:06:52;14.05;;;10.27;;
45198;SDS011;30941;46.422;18.772;2023-04-03T01:09:17;15.75;;;10.05;;
45198;SDS011;30941;46.422;18.772;2023-04-03T01:11:42;13.90;;;10.00;;
45198;SDS011;30941;46.422;18.772;2023-04-03T01:14:08;13.48;;;9.25;;
45198;SDS011;30941;46.422;18.772;2023-04-03T01:16:33;13.43;;;10.27;;
45198;SDS011;30941;46.422;18.772;2023-04-03T01:19:00;13.85;;;9.13;;
45198;SDS011;30941;46.422;18.772;2023-04-03T01:24:27;12.48;;;8.77;;
45198;SDS011;30941;46.422;18.772;2023-04-03T01:26:48;10.32;;;8.23;;
45198;SDS011;30941;46.422;18.772;2023-04-03T01:29:13;12.98;;;8.85;;
45198;SDS011;30941;46.422;18.772;2023-04-03T01:31:52;11.25;;;7.95;;
45198;SDS011;30941;46.422;18.772;2023-04-03T01:34:18;10.68;;;8.05;;
45198;SDS011;30941;46.422;18.772;2023-04-03T01:36:44;13.63;;;8.60;;
45198;SDS011;30941;46.422;18.772;2023-04-03T01:39:10;12.30;;;7.57;;
45198;SDS011;30941;46.422;18.772;2023-04-03T01:41:35;12.63;;;8.82;;
45198;SDS011;30941;46.422;18.772;2023-04-03T01:44:01;11.73;;;7.70;;
45198;SDS011;30941;46.422;18.772;2023-04-03T01:46:26;13.02;;;8.02;;
45198;SDS011;30941;46.422;18.772;2023-04-03T01:48:52;12.02;;;8.25;;
45198;SDS011;30941;46.422;18.772;2023-04-03T01:51:17;13.18;;;8.68;;
45198;SDS011;30941;46.422;18.772;2023-04-03T01:53:42;11.73;;;8.23;;
45198;SDS011;30941;46.422;18.772;2023-04-03T01:56:08;12.77;;;8.68;;
45198;SDS011;30941;46.422;18.772;2023-04-03T01:58:34;12.85;;;8.82;;
45198;SDS011;30941;46.422;18.772;2023-04-03T02:00:59;11.98;;;7.95;;
45198;SDS011;30941;46.422;18.772;2023-04-03T02:03:25;11.98;;;7.85;;
45198;SDS011;30941;46.422;18.772;2023-04-03T02:05:51;13.50;;;8.65;;
45198;SDS011;30941;46.422;18.772;2023-04-03T02:08:16;12.77;;;8.80;;
45198;SDS011;30941;46.422;18.772;2023-04-03T02:10:46;12.88;;;8.43;;
45198;SDS011;30941;46.422;18.772;2023-04-03T02:13:12;10.68;;;8.15;;
45198;SDS011;30941;46.422;18.772;2023-04-03T02:15:38;11.85;;;8.02;;
45198;SDS011;30941;46.422;18.772;2023-04-03T02:18:04;11.60;;;8.52;;
45198;SDS011;30941;46.422;18.772;2023-04-03T02:20:30;12.27;;;8.55;;
45198;SDS011;30941;46.422;18.772;2023-04-03T02:22:55;11.65;;;7.88;;
45198;SDS011;30941;46.422;18.772;2023-04-03T02:25:21;12.50;;;8.55;;
45198;SDS011;30941;46.422;18.772;2023-04-03T02:27:46;10.55;;;7.35;;
45198;SDS011;30941;46.422;18.772;2023-04-03T02:30:11;12.82;;;8.57;;
45198;SDS011;30941;46.422;18.772;2023-04-03T02:32:37;11.50;;;7.88;;
45198;SDS011;30941;46.422;18.772;2023-04-03T02:35:03;13.82;;;8.70;;
45198;SDS011;30941;46.422;18.772;2023-04-03T02:37:28;11.40;;;8.25;;
45198;SDS011;30941;46.422;18.772;2023-04-03T02:39:55;11.32;;;8.10;;
45198;SDS011;30941;46.422;18.772;2023-04-03T02:42:20;11.35;;;7.82;;
45198;SDS011;30941;46.422;18.772;2023-04-03T02:44:45;10.68;;;7.45;;
45198;SDS011;30941;46.422;18.772;2023-04-03T02:47:11;13.35;;;9.10;;
45198;SDS011;30941;46.422;18.772;2023-04-03T02:49:36;14.65;;;7.43;;
45198;SDS011;30941;46.422;18.772;2023-04-03T02:52:02;12.32;;;8.80;;
45198;SDS011;30941;46.422;18.772;2023-04-03T02:54:27;11.35;;;8.07;;
45198;SDS011;30941;46.422;18.772;2023-04-03T02:56:55;12.38;;;8.63;;
45198;SDS011;30941;46.422;18.772;2023-04-03T02:59:21;11.27;;;7.78;;
45198;SDS011;30941;46.422;18.772;2023-04-03T03:01:46;13.02;;;8.20;;
45198;SDS011;30941;46.422;18.772;2023-04-03T03:04:12;10.32;;;7.45;;
45198;SDS011;30941;46.422;18.772;2023-04-03T03:06:37;11.57;;;7.57;;
45198;SDS011;30941;46.422;18.772;2023-04-03T03:09:03;13.63;;;8.35;;
45198;SDS011;30941;46.422;18.772;2023-04-03T03:11:29;11.27;;;8.60;;
45198;SDS011;30941;46.422;18.772;2023-04-03T03:13:55;13.23;;;9.40;;
45198;SDS011;30941;46.422;18.772;2023-04-03T03:16:21;14.70;;;9.35;;
45198;SDS011;30941;46.422;18.772;2023-04-03T03:18:47;13.38;;;8.98;;
45198;SDS011;30941;46.422;18.772;2023-04-03T03:21:12;14.27;;;9.45;;
45198;SDS011;30941;46.422;18.772;2023-04-03T03:23:37;13.38;;;9.40;;
45198;SDS011;30941;46.422;18.772;2023-04-03T03:26:04;11.48;;;8.35;;
45198;SDS011;30941;46.422;18.772;2023-04-03T03:28:31;12.27;;;9.10;;
45198;SDS011;30941;46.422;18.772;2023-04-03T03:30:57;11.95;;;8.23;;
45198;SDS011;30941;46.422;18.772;2023-04-03T03:33:23;12.70;;;8.85;;
45198;SDS011;30941;46.422;18.772;2023-04-03T03:35:48;13.13;;;8.70;;
45198;SDS011;30941;46.422;18.772;2023-04-03T03:38:14;13.15;;;8.23;;
45198;SDS011;30941;46.422;18.772;2023-04-03T03:40:40;9.95;;;7.30;;
45198;SDS011;30941;46.422;18.772;2023-04-03T03:43:05;9.20;;;6.65;;
45198;SDS011;30941;46.422;18.772;2023-04-03T03:45:31;9.68;;;7.00;;
45198;SDS011;30941;46.422;18.772;2023-04-03T03:47:56;12.02;;;7.55;;
45198;SDS011;30941;46.422;18.772;2023-04-03T03:50:21;10.30;;;6.55;;
45198;SDS011;30941;46.422;18.772;2023-04-03T03:52:47;10.55;;;6.95;;
45198;SDS011;30941;46.422;18.772;2023-04-03T03:55:12;8.98;;;6.80;;
45198;SDS011;30941;46.422;18.772;2023-04-03T03:57:38;10.05;;;6.40;;
45198;SDS011;30941;46.422;18.772;2023-04-03T04:00:03;10.65;;;6.47;;
45198;SDS011;30941;46.422;18.772;2023-04-03T04:02:29;10.77;;;7.20;;
45198;SDS011;30941;46.422;18.772;2023-04-03T04:04:55;9.85;;;7.10;;
45198;SDS011;30941;46.422;18.772;2023-04-03T04:07:21;10.43;;;7.00;;
45198;SDS011;30941;46.422;18.772;2023-04-03T04:09:46;11.80;;;7.22;;
45198;SDS011;30941;46.422;18.772;2023-04-03T04:12:11;12.30;;;8.00;;
45198;SDS011;30941;46.422;18.772;2023-04-03T04:14:37;10.68;;;7.22;;
45198;SDS011;30941;46.422;18.772;2023-04-03T04:17:02;11.57;;;7.35;;
45198;SDS011;30941;46.422;18.772;2023-04-03T04:19:28;11.68;;;7.57;;
45198;SDS011;30941;46.422;18.772;2023-04-03T04:21:53;11.60;;;7.70;;
45198;SDS011;30941;46.422;18.772;2023-04-03T04:24:19;10.60;;;7.93;;
45198;SDS011;30941;46.422;18.772;2023-04-03T04:26:44;12.05;;;8.20;;
45198;SDS011;30941;46.422;18.772;2023-04-03T04:29:10;11.10;;;7.50;;
45198;SDS011;30941;46.422;18.772;2023-04-03T04:31:35;12.02;;;7.40;;
45198;SDS011;30941;46.422;18.772;2023-04-03T04:34:01;10.50;;;7.40;;
45198;SDS011;30941;46.422;18.772;2023-04-03T04:36:26;10.20;;;7.15;;
45198;SDS011;30941;46.422;18.772;2023-04-03T04:38:52;10.63;;;7.63;;
45198;SDS011;30941;46.422;18.772;2023-04-03T04:41:20;10.13;;;7.00;;
45198;SDS011;30941;46.422;18.772;2023-04-03T04:43:48;11.52;;;7.47;;
45198;SDS011;30941;46.422;18.772;2023-04-03T04:46:14;12.00;;;7.35;;
45198;SDS011;30941;46.422;18.772;2023-04-03T04:48:39;9.98;;;7.20;;
45198;SDS011;30941;46.422;18.772;2023-04-03T04:51:05;9.45;;;7.32;;
45198;SDS011;30941;46.422;18.772;2023-04-03T04:53:31;12.63;;;8.70;;
45198;SDS011;30941;46.422;18.772;2023-04-03T04:55:56;9.10;;;6.75;;
45198;SDS011;30941;46.422;18.772;2023-04-03T04:58:21;10.05;;;6.90;;
45198;SDS011;30941;46.422;18.772;2023-04-03T05:00:47;11.18;;;7.78;;
45198;SDS011;30941;46.422;18.772;2023-04-03T05:03:12;11.57;;;7.95;;
45198;SDS011;30941;46.422;18.772;2023-04-03T05:05:38;14.80;;;9.43;;
45198;SDS011;30941;46.422;18.772;2023-04-03T05:08:04;11.93;;;8.02;;
45198;SDS011;30941;46.422;18.772;2023-04-03T05:10:29;10.93;;;7.85;;
45198;SDS011;30941;46.422;18.772;2023-04-03T05:12:56;12.68;;;8.82;;
45198;SDS011;30941;46.422;18.772;2023-04-03T05:15:22;11.73;;;7.70;;
45198;SDS011;30941;46.422;18.772;2023-04-03T05:17:47;11.13;;;7.50;;
45198;SDS011;30941;46.422;18.772;2023-04-03T05:20:13;10.20;;;7.25;;
45198;SDS011;30941;46.422;18.772;2023-04-03T05:22:38;10.32;;;7.30;;
45198;SDS011;30941;46.422;18.772;2023-04-03T05:25:04;10.02;;;7.20;;
45198;SDS011;30941;46.422;18.772;2023-04-03T05:27:30;10.85;;;7.40;;
45198;SDS011;30941;46.422;18.772;2023-04-03T05:29:55;10.10;;;7.70;;
45198;SDS011;30941;46.422;18.772;2023-04-03T05:32:24;14.18;;;7.60;;
45198;SDS011;30941;46.422;18.772;2023-04-03T05:34:51;11.60;;;8.20;;
45198;SDS011;30941;46.422;18.772;2023-04-03T05:37:16;11.20;;;7.72;;
45198;SDS011;30941;46.422;18.772;2023-04-03T05:39:42;12.68;;;7.72;;
45198;SDS011;30941;46.422;18.772;2023-04-03T05:42:07;12.32;;;7.80;;
45198;SDS011;30941;46.422;18.772;2023-04-03T05:44:33;11.93;;;7.90;;
45198;SDS011;30941;46.422;18.772;2023-04-03T05:46:59;11.30;;;7.85;;
45198;SDS011;30941;46.422;18.772;2023-04-03T05:49:24;10.95;;;7.18;;
45198;SDS011;30941;46.422;18.772;2023-04-03T05:51:50;11.73;;;7.25;;
45198;SDS011;30941;46.422;18.772;2023-04-03T05:54:29;11.20;;;7.40;;
45198;SDS011;30941;46.422;18.772;2023-04-03T05:56:55;11.65;;;7.18;;
45198;SDS011;30941;46.422;18.772;2023-04-03T05:59:21;10.70;;;7.32;;
45198;SDS011;30941;46.422;18.772;2023-04-03T06:01:47;12.20;;;8.05;;
45198;SDS011;30941;46.422;18.772;2023-04-03T06:04:13;12.45;;;7.38;;
45198;SDS011;30941;46.422;18.772;2023-04-03T06:06:55;11.30;;;7.63;;
45198;SDS011;30941;46.422;18.772;2023-04-03T06:09:23;9.82;;;7.05;;
45198;SDS011;30941;46.422;18.772;2023-04-03T06:11:50;11.45;;;7.57;;
45198;SDS011;30941;46.422;18.772;2023-04-03T06:14:16;9.68;;;7.28;;
45198;SDS011;30941;46.422;18.772;2023-04-03T06:16:42;11.30;;;7.90;;
45198;SDS011;30941;46.422;18.772;2023-04-03T06:19:08;11.45;;;7.97;;
45198;SDS011;30941;46.422;18.772;2023-04-03T06:21:34;10.95;;;8.10;;
45198;SDS011;30941;46.422;18.772;2023-04-03T06:24:00;11.90;;;8.18;;
45198;SDS011;30941;46.422;18.772;2023-04-03T06:26:27;11.75;;;7.78;;
45198;SDS011;30941;46.422;18.772;2023-04-03T06:28:53;10.77;;;7.78;;
45198;SDS011;30941;46.422;18.772;2023-04-03T06:31:18;9.85;;;7.90;;
45198;SDS011;30941;46.422;18.772;2023-04-03T06:33:44;11.18;;;7.60;;
45198;SDS011;30941;46.422;18.772;2023-04-03T06:36:10;9.88;;;7.35;;
45198;SDS011;30941;46.422;18.772;2023-04-03T06:38:37;11.00;;;7.63;;
45198;SDS011;30941;46.422;18.772;2023-04-03T06:41:02;10.43;;;8.05;;
45198;SDS011;30941;46.422;18.772;2023-04-03T06:43:28;10.57;;;7.03;;
45198;SDS011;30941;46.422;18.772;2023-04-03T06:45:53;9.25;;;6.97;;
45198;SDS011;30941;46.422;18.772;2023-04-03T06:48:18;10.52;;;7.82;;
45198;SDS011;30941;46.422;18.772;2023-04-03T06:50:44;11.63;;;8.65;;
45198;SDS011;30941;46.422;18.772;2023-04-03T06:53:09;9.82;;;7.20;;
45198;SDS011;30941;46.422;18.772;2023-04-03T06:55:35;9.60;;;7.45;;
45198;SDS011;30941;46.422;18.772;2023-04-03T06:58:01;11.88;;;7.57;;
45198;SDS011;30941;46.422;18.772;2023-04-03T07:00:26;11.50;;;8.40;;
45198;SDS011;30941;46.422;18.772;2023-04-03T07:02:52;9.50;;;7.97;;
45198;SDS011;30941;46.422;18.772;2023-04-03T07:05:18;11.20;;;8.10;;
45198;SDS011;30941;46.422;18.772;2023-04-03T07:07:44;9.82;;;7.15;;
45198;SDS011;30941;46.422;18.772;2023-04-03T07:10:09;10.18;;;7.65;;
45198;SDS011;30941;46.422;18.772;2023-04-03T07:12:35;9.25;;;6.90;;
45198;SDS011;30941;46.422;18.772;2023-04-03T07:15:01;9.43;;;7.00;;
45198;SDS011;30941;46.422;18.772;2023-04-03T07:17:26;9.85;;;6.88;;
45198;SDS011;30941;46.422;18.772;2023-04-03T07:19:52;9.23;;;7.18;;
45198;SDS011;30941;46.422;18.772;2023-04-03T07:22:17;9.68;;;6.85;;
45198;SDS011;30941;46.422;18.772;2023-04-03T07:24:43;10.30;;;6.93;;
45198;SDS011;30941;46.422;18.772;2023-04-03T07:27:08;10.25;;;6.85;;
45198;SDS011;30941;46.422;18.772;2023-04-03T07:29:34;9.70;;;7.05;;
45198;SDS011;30941;46.422;18.772;2023-04-03T07:32:00;9.55;;;6.80;;
45198;SDS011;30941;46.422;18.772;2023-04-03T07:34:26;9.75;;;7.68;;
45198;SDS011;30941;46.422;18.772;2023-04-03T07:36:52;8.52;;;6.15;;
45198;SDS011;30941;46.422;18.772;2023-04-03T07:39:17;9.20;;;6.68;;
45198;SDS011;30941;46.422;18.772;2023-04-03T07:41:43;9.48;;;7.03;;
45198;SDS011;30941;46.422;18.772;2023-04-03T07:44:08;9.13;;;7.07;;
45198;SDS011;30941;46.422;18.772;2023-04-03T07:46:35;10.55;;;6.90;;
45198;SDS011;30941;46.422;18.772;2023-04-03T07:49:00;10.70;;;7.30;;
45198;SDS011;30941;46.422;18.772;2023-04-03T07:51:26;9.10;;;7.05;;
45198;SDS011;30941;46.422;18.772;2023-04-03T07:53:53;9.82;;;6.47;;
45198;SDS011;30941;46.422;18.772;2023-04-03T07:56:19;9.10;;;7.20;;
45198;SDS011;30941;46.422;18.772;2023-04-03T07:58:45;8.93;;;6.70;;
45198;SDS011;30941;46.422;18.772;2023-04-03T08:01:11;9.35;;;7.10;;
45198;SDS011;30941;46.422;18.772;2023-04-03T08:03:37;11.38;;;7.15;;
45198;SDS011;30941;46.422;18.772;2023-04-03T08:06:04;8.63;;;6.93;;
45198;SDS011;30941;46.422;18.772;2023-04-03T08:08:30;11.20;;;7.80;;
45198;SDS011;30941;46.422;18.772;2023-04-03T08:10:57;8.75;;;7.18;;
45198;SDS011;30941;46.422;18.772;2023-04-03T08:13:23;7.57;;;6.03;;
45198;SDS011;30941;46.422;18.772;2023-04-03T08:15:49;8.05;;;6.53;;
45198;SDS011;30941;46.422;18.772;2023-04-03T08:18:15;8.70;;;6.30;;
45198;SDS011;30941;46.422;18.772;2023-04-03T08:20:41;9.98;;;6.75;;
45198;SDS011;30941;46.422;18.772;2023-04-03T08:23:08;8.85;;;6.70;;
45198;SDS011;30941;46.422;18.772;2023-04-03T08:25:37;9.40;;;6.20;;
45198;SDS011;30941;46.422;18.772;2023-04-03T08:28:03;8.20;;;6.13;;
45198;SDS011;30941;46.422;18.772;2023-04-03T08:30:29;11.52;;;6.95;;
45198;SDS011;30941;46.422;18.772;2023-04-03T08:32:54;8.95;;;6.60;;
45198;SDS011;30941;46.422;18.772;2023-04-03T08:35:20;8.70;;;5.43;;
45198;SDS011;30941;46.422;18.772;2023-04-03T08:37:45;10.60;;;7.40;;
45198;SDS011;30941;46.422;18.772;2023-04-03T08:40:13;12.63;;;6.38;;
45198;SDS011;30941;46.422;18.772;2023-04-03T08:48:08;13.07;;;7.18;;
45198;SDS011;30941;46.422;18.772;2023-04-03T08:50:39;9.75;;;6.85;;
45198;SDS011;30941;46.422;18.772;2023-04-03T08:53:12;13.30;;;7.80;;
45198;SDS011;30941;46.422;18.772;2023-04-03T08:55:49;9.18;;;6.40;;
45198;SDS011;30941;46.422;18.772;2023-04-03T08:58:19;9.48;;;6.18;;
45198;SDS011;30941;46.422;18.772;2023-04-03T09:00:48;10.35;;;7.00;;
45198;SDS011;30941;46.422;18.772;2023-04-03T09:03:17;7.63;;;5.90;;
45198;SDS011;30941;46.422;18.772;2023-04-03T09:05:55;6.75;;;5.55;;
45198;SDS011;30941;46.422;18.772;2023-04-03T09:11:07;7.10;;;5.78;;
45198;SDS011;30941;46.422;18.772;2023-04-03T09:21:50;17.05;;;9.50;;
45198;SDS011;30941;46.422;18.772;2023-04-03T09:24:16;8.65;;;6.18;;
45198;SDS011;30941;46.422;18.772;2023-04-03T09:26:51;7.38;;;5.60;;
45198;SDS011;30941;46.422;18.772;2023-04-03T09:29:18;8.02;;;5.32;;
45198;SDS011;30941;46.422;18.772;2023-04-03T09:31:46;6.78;;;5.28;;
45198;SDS011;30941;46.422;18.772;2023-04-03T09:36:50;7.75;;;5.22;;
45198;SDS011;30941;46.422;18.772;2023-04-03T09:39:21;7.78;;;6.15;;
45198;SDS011;30941;46.422;18.772;2023-04-03T09:42:00;7.22;;;5.32;;
45198;SDS011;30941;46.422;18.772;2023-04-03T09:44:35;6.55;;;5.07;;
45198;SDS011;30941;46.422;18.772;2023-04-03T09:50:10;7.07;;;5.78;;
45198;SDS011;30941;46.422;18.772;2023-04-03T09:52:45;7.10;;;5.25;;
45198;SDS011;30941;46.422;18.772;2023-04-03T09:55:25;7.63;;;5.07;;
45198;SDS011;30941;46.422;18.772;2023-04-03T09:57:52;7.93;;;4.75;;
45198;SDS011;30941;46.422;18.772;2023-04-03T10:00:37;7.10;;;4.82;;
45198;SDS011;30941;46.422;18.772;2023-04-03T10:03:04;5.65;;;4.68;;
45198;SDS011;30941;46.422;18.772;2023-04-03T10:05:40;5.93;;;4.78;;
45198;SDS011;30941;46.422;18.772;2023-04-03T10:10:35;6.45;;;4.80;;
45198;SDS011;30941;46.422;18.772;2023-04-03T10:13:19;6.15;;;4.80;;
45198;SDS011;30941;46.422;18.772;2023-04-03T10:15:50;6.63;;;4.90;;
45198;SDS011;30941;46.422;18.772;2023-04-03T10:21:52;7.97;;;4.97;;
45198;SDS011;30941;46.422;18.772;2023-04-03T10:27:55;5.85;;;4.45;;
45198;SDS011;30941;46.422;18.772;2023-04-03T10:39:01;6.85;;;4.82;;
45198;SDS011;30941;46.422;18.772;2023-04-03T10:47:32;8.70;;;5.43;;
45198;SDS011;30941;46.422;18.772;2023-04-03T10:52:38;5.40;;;4.18;;
45198;SDS011;30941;46.422;18.772;2023-04-03T11:00:19;6.32;;;4.60;;
45198;SDS011;30941;46.422;18.772;2023-04-03T11:02:52;6.28;;;4.28;;
45198;SDS011;30941;46.422;18.772;2023-04-03T11:08:22;5.97;;;4.20;;
45198;SDS011;30941;46.422;18.772;2023-04-03T11:10:51;5.30;;;4.03;;
45198;SDS011;30941;46.422;18.772;2023-04-03T11:13:30;6.82;;;4.30;;
45198;SDS011;30941;46.422;18.772;2023-04-03T11:15:59;6.03;;;4.13;;
45198;SDS011;30941;46.422;18.772;2023-04-03T11:21:09;5.45;;;4.10;;
45198;SDS011;30941;46.422;18.772;2023-04-03T11:23:40;6.18;;;4.05;;
45198;SDS011;30941;46.422;18.772;2023-04-03T11:26:16;6.15;;;4.30;;
45198;SDS011;30941;46.422;18.772;2023-04-03T11:28:43;9.82;;;4.20;;
45198;SDS011;30941;46.422;18.772;2023-04-03T11:36:48;8.55;;;5.45;;
45198;SDS011;30941;46.422;18.772;2023-04-03T11:44:44;7.85;;;4.68;;
45198;SDS011;30941;46.422;18.772;2023-04-03T11:47:10;8.13;;;5.00;;
45198;SDS011;30941;46.422;18.772;2023-04-03T12:08:26;6.07;;;4.40;;
45198;SDS011;30941;46.422;18.772;2023-04-03T12:16:02;6.85;;;4.85;;
45198;SDS011;30941;46.422;18.772;2023-04-03T12:21:07;7.40;;;4.68;;
45198;SDS011;30941;46.422;18.772;2023-04-03T12:23:33;5.97;;;4.00;;
45198;SDS011;30941;46.422;18.772;2023-04-03T12:28:46;7.47;;;4.65;;
45198;SDS011;30941;46.422;18.772;2023-04-03T12:31:13;5.85;;;4.50;;
45198;SDS011;30941;46.422;18.772;2023-04-03T12:36:33;7.60;;;4.97;;
45198;SDS011;30941;46.422;18.772;2023-04-03T12:42:24;7.32;;;5.07;;
45198;SDS011;30941;46.422;18.772;2023-04-03T12:47:23;8.88;;;4.93;;
45198;SDS011;30941;46.422;18.772;2023-04-03T12:49:52;5.68;;;3.90;;
45198;SDS011;30941;46.422;18.772;2023-04-03T12:52:32;7.45;;;4.82;;
45198;SDS011;30941;46.422;18.772;2023-04-03T12:54:59;7.45;;;4.82;;
45198;SDS011;30941;46.422;18.772;2023-04-03T12:57:29;6.72;;;4.80;;
45198;SDS011;30941;46.422;18.772;2023-04-03T12:59:55;9.05;;;5.38;;
45198;SDS011;30941;46.422;18.772;2023-04-03T13:04:49;7.57;;;5.10;;
45198;SDS011;30941;46.422;18.772;2023-04-03T13:07:23;6.50;;;4.80;;
45198;SDS011;30941;46.422;18.772;2023-04-03T13:09:57;8.25;;;4.63;;
45198;SDS011;30941;46.422;18.772;2023-04-03T13:12:24;7.38;;;4.82;;
45198;SDS011;30941;46.422;18.772;2023-04-03T13:14:57;7.85;;;5.30;;
45198;SDS011;30941;46.422;18.772;2023-04-03T13:17:26;6.10;;;4.70;;
45198;SDS011;30941;46.422;18.772;2023-04-03T13:19:52;5.75;;;4.38;;
45198;SDS011;30941;46.422;18.772;2023-04-03T13:24:46;9.48;;;4.72;;
45198;SDS011;30941;46.422;18.772;2023-04-03T13:27:13;7.57;;;4.55;;
45198;SDS011;30941;46.422;18.772;2023-04-03T13:29:40;6.15;;;4.25;;
45198;SDS011;30941;46.422;18.772;2023-04-03T13:32:06;6.70;;;4.32;;
45198;SDS011;30941;46.422;18.772;2023-04-03T13:34:36;7.82;;;4.03;;
45198;SDS011;30941;46.422;18.772;2023-04-03T13:37:03;6.13;;;3.97;;
45198;SDS011;30941;46.422;18.772;2023-04-03T13:39:33;5.53;;;3.67;;
45198;SDS011;30941;46.422;18.772;2023-04-03T13:42:20;4.65;;;3.10;;
45198;SDS011;30941;46.422;18.772;2023-04-03T13:44:48;4.13;;;3.55;;
45198;SDS011;30941;46.422;18.772;2023-04-03T13:47:21;5.55;;;3.67;;
45198;SDS011;30941;46.422;18.772;2023-04-03T13:52:41;6.15;;;3.80;;
45198;SDS011;30941;46.422;18.772;2023-04-03T13:55:19;7.93;;;4.45;;
45198;SDS011;30941;46.422;18.772;2023-04-03T13:57:48;7.78;;;4.50;;
45198;SDS011;30941;46.422;18.772;2023-04-03T14:02:53;7.10;;;5.03;;
45198;SDS011;30941;46.422;18.772;2023-04-03T14:05:21;8.02;;;5.13;;
45198;SDS011;30941;46.422;18.772;2023-04-03T14:07:48;7.70;;;5.72;;
45198;SDS011;30941;46.422;18.772;2023-04-03T14:10:13;7.60;;;5.10;;
45198;SDS011;30941;46.422;18.772;2023-04-03T14:12:39;8.02;;;5.30;;
45198;SDS011;30941;46.422;18.772;2023-04-03T14:15:27;8.52;;;5.90;;
45198;SDS011;30941;46.422;18.772;2023-04-03T14:17:53;7.63;;;4.50;;
45198;SDS011;30941;46.422;18.772;2023-04-03T14:20:20;5.60;;;4.47;;
45198;SDS011;30941;46.422;18.772;2023-04-03T14:22:48;6.05;;;4.07;;
45198;SDS011;30941;46.422;18.772;2023-04-03T14:25:15;6.75;;;4.20;;
45198;SDS011;30941;46.422;18.772;2023-04-03T14:27:42;7.03;;;4.10;;
45198;SDS011;30941;46.422;18.772;2023-04-03T14:30:12;4.97;;;3.72;;
45198;SDS011;30941;46.422;18.772;2023-04-03T14:32:41;6.53;;;4.32;;
45198;SDS011;30941;46.422;18.772;2023-04-03T14:35:06;6.15;;;4.32;;
45198;SDS011;30941;46.422;18.772;2023-04-03T14:37:32;6.70;;;4.88;;
45198;SDS011;30941;46.422;18.772;2023-04-03T14:39:58;8.93;;;5.22;;
45198;SDS011;30941;46.422;18.772;2023-04-03T14:42:27;7.22;;;5.13;;
45198;SDS011;30941;46.422;18.772;2023-04-03T14:44:56;8.52;;;5.35;;
45198;SDS011;30941;46.422;18.772;2023-04-03T14:47:26;10.57;;;5.60;;
45198;SDS011;30941;46.422;18.772;2023-04-03T14:49:52;8.25;;;5.35;;
45198;SDS011;30941;46.422;18.772;2023-04-03T14:52:22;11.45;;;5.22;;
45198;SDS011;30941;46.422;18.772;2023-04-03T14:54:50;11.43;;;5.05;;
45198;SDS011;30941;46.422;18.772;2023-04-03T14:57:16;7.90;;;4.53;;
45198;SDS011;30941;46.422;18.772;2023-04-03T14:59:42;8.07;;;5.20;;
45198;SDS011;30941;46.422;18.772;2023-04-03T15:04:54;9.07;;;6.03;;
45198;SDS011;30941;46.422;18.772;2023-04-03T15:07:20;7.35;;;5.03;;
45198;SDS011;30941;46.422;18.772;2023-04-03T15:09:46;8.50;;;5.40;;
45198;SDS011;30941;46.422;18.772;2023-04-03T15:12:11;8.30;;;5.00;;
45198;SDS011;30941;46.422;18.772;2023-04-03T15:14:37;7.72;;;4.60;;
45198;SDS011;30941;46.422;18.772;2023-04-03T15:17:05;8.52;;;4.82;;
45198;SDS011;30941;46.422;18.772;2023-04-03T15:19:37;8.65;;;5.22;;
45198;SDS011;30941;46.422;18.772;2023-04-03T15:22:03;6.47;;;4.70;;
45198;SDS011;30941;46.422;18.772;2023-04-03T15:24:28;11.65;;;4.65;;
45198;SDS011;30941;46.422;18.772;2023-04-03T15:26:54;9.95;;;5.55;;
45198;SDS011;30941;46.422;18.772;2023-04-03T15:29:19;8.10;;;5.20;;
45198;SDS011;30941;46.422;18.772;2023-04-03T15:31:45;10.65;;;5.63;;
45198;SDS011;30941;46.422;18.772;2023-04-03T15:34:10;8.35;;;5.43;;
45198;SDS011;30941;46.422;18.772;2023-04-03T15:36:35;12.45;;;5.93;;
45198;SDS011;30941;46.422;18.772;2023-04-03T15:39:01;7.63;;;5.20;;
45198;SDS011;30941;46.422;18.772;2023-04-03T15:41:26;9.88;;;4.43;;
45198;SDS011;30941;46.422;18.772;2023-04-03T15:43:52;8.98;;;5.10;;
45198;SDS011;30941;46.422;18.772;2023-04-03T15:46:17;9.18;;;5.20;;
45198;SDS011;30941;46.422;18.772;2023-04-03T15:48:43;9.15;;;5.55;;
45198;SDS011;30941;46.422;18.772;2023-04-03T15:51:09;8.93;;;5.25;;
45198;SDS011;30941;46.422;18.772;2023-04-03T15:53:35;7.32;;;5.28;;
45198;SDS011;30941;46.422;18.772;2023-04-03T15:56:01;8.82;;;4.80;;
45198;SDS011;30941;46.422;18.772;2023-04-03T15:58:26;7.25;;;5.35;;
45198;SDS011;30941;46.422;18.772;2023-04-03T16:00:51;8.05;;;4.95;;
45198;SDS011;30941;46.422;18.772;2023-04-03T16:03:18;9.57;;;4.78;;
45198;SDS011;30941;46.422;18.772;2023-04-03T16:05:45;9.70;;;5.60;;
45198;SDS011;30941;46.422;18.772;2023-04-03T16:08:11;9.10;;;5.07;;
45198;SDS011;30941;46.422;18.772;2023-04-03T16:10:37;7.78;;;5.30;;
45198;SDS011;30941;46.422;18.772;2023-04-03T16:13:03;9.38;;;5.30;;
45198;SDS011;30941;46.422;18.772;2023-04-03T16:15:29;10.77;;;5.57;;
45198;SDS011;30941;46.422;18.772;2023-04-03T16:17:55;9.65;;;5.97;;
45198;SDS011;30941;46.422;18.772;2023-04-03T16:20:23;10.18;;;5.05;;
45198;SDS011;30941;46.422;18.772;2023-04-03T16:22:48;9.63;;;5.13;;
45198;SDS011;30941;46.422;18.772;2023-04-03T16:25:14;7.75;;;4.75;;
45198;SDS011;30941;46.422;18.772;2023-04-03T16:27:40;9.98;;;5.70;;
45198;SDS011;30941;46.422;18.772;2023-04-03T16:30:06;8.18;;;4.95;;
45198;SDS011;30941;46.422;18.772;2023-04-03T16:32:32;11.13;;;5.38;;
45198;SDS011;30941;46.422;18.772;2023-04-03T16:34:58;13.60;;;4.88;;